createdAt,value
2023-03-08T05:39:23.749Z,1.60
2023-03-08T05:44:27.028Z,1.97
2023-03-08T05:49:30.346Z,2.00
2023-03-08T05:54:33.553Z,2.30
2023-03-08T05:59:36.843Z,2.40
2023-03-08T06:04:40.063Z,2.03
2023-03-08T06:09:43.839Z,2.50
2023-03-08T06:14:48.468Z,3.23
2023-03-08T06:19:51.736Z,2.37
2023-03-08T06:24:57.735Z,3.27
2023-03-08T06:30:01.002Z,2.70
2023-03-08T06:35:04.612Z,3.17
2023-03-08T06:40:09.488Z,3.23
2023-03-08T06:45:12.806Z,2.83
2023-03-08T06:55:44.118Z,2.97
2023-03-08T07:00:48.528Z,3.37
2023-03-08T07:05:53.488Z,3.30
2023-03-08T07:10:57.140Z,3.63
2023-03-08T07:16:07.358Z,4.00
2023-03-08T07:21:11.386Z,3.10
2023-03-08T07:26:23.579Z,2.97
2023-03-08T07:31:29.267Z,3.77
2023-03-08T08:33:48.168Z,4.57
2023-03-08T08:38:53.211Z,3.23
2023-03-08T08:43:59.930Z,3.33
2023-03-08T08:49:05.820Z,4.20
2023-03-08T08:54:09.062Z,3.33
2023-03-08T08:59:13.873Z,4.07
2023-03-08T09:04:17.334Z,4.30
2023-03-08T09:09:20.901Z,3.80
2023-03-08T11:56:48.328Z,2.70
2023-03-08T12:02:15.809Z,1.70
2023-03-08T12:07:41.433Z,2.77
2023-03-08T12:12:53.749Z,3.10
2023-03-08T12:18:16.489Z,2.30
2023-03-08T12:23:37.359Z,3.23
2023-03-08T12:28:46.645Z,2.53
2023-03-08T12:33:50.076Z,3.23
2023-03-08T12:38:57.029Z,4.20
2023-03-08T12:44:02.387Z,3.47
2023-03-08T12:49:37.194Z,3.97
2023-03-08T12:54:44.802Z,4.70
2023-03-08T13:00:06.996Z,4.87
2023-03-08T13:05:33.378Z,4.93
2023-03-08T13:10:54.191Z,4.67
2023-03-08T13:16:16.044Z,4.20
2023-03-08T13:21:31.500Z,4.53
2023-03-08T13:26:51.414Z,4.07
2023-03-08T13:31:56.879Z,3.50
2023-03-08T13:37:00.388Z,3.97
2023-03-08T13:42:11.787Z,4.07
2023-03-08T13:47:36.297Z,3.90
2023-03-08T13:52:40.183Z,3.67
2023-03-08T13:57:43.650Z,2.87
2023-03-08T14:02:48.007Z,2.50
2023-03-08T14:08:20.466Z,2.40
2023-03-08T14:13:33.870Z,2.97
2023-03-08T14:18:40.088Z,3.83
2023-03-08T14:24:18.779Z,3.07
2023-03-08T14:29:23.065Z,2.67
2023-03-08T14:34:39.523Z,2.63
2023-03-08T14:39:48.105Z,3.50
2023-03-08T14:44:57.973Z,2.77
2023-03-08T14:50:20.122Z,2.20
2023-03-08T14:55:24.828Z,2.57
2023-03-08T15:00:30.159Z,2.87
2023-03-08T15:05:34.209Z,2.93
2023-03-08T15:10:39.573Z,2.70
2023-03-08T15:15:43.188Z,2.90
2023-03-08T15:20:49.697Z,2.57
2023-03-08T15:25:58.018Z,3.13
2023-03-08T15:31:01.667Z,2.83
2023-03-08T15:36:05.657Z,2.57
2023-03-08T15:41:16.592Z,2.60
2023-03-08T15:46:19.948Z,3.07
2023-03-08T15:51:29.421Z,3.10
2023-03-08T15:56:32.987Z,2.63
2023-03-08T16:01:36.429Z,3.30
2023-03-08T16:06:43.952Z,2.97
2023-03-08T16:11:48.197Z,3.30
2023-03-08T16:16:51.594Z,3.50
2023-03-08T16:21:54.985Z,3.43
2023-03-08T16:26:59.825Z,3.23
2023-03-08T16:32:03.263Z,3.60
2023-03-08T16:37:06.824Z,3.33
2023-03-08T16:42:14.394Z,3.43
2023-03-08T16:47:17.990Z,3.23
2023-03-08T16:52:21.368Z,2.83
2023-03-08T16:57:24.672Z,4.73
2023-03-08T17:02:27.947Z,4.93
2023-03-08T17:07:31.733Z,4.23
2023-03-08T17:12:35.295Z,5.17
2023-03-08T17:17:41.831Z,5.40
2023-03-08T17:22:45.423Z,7.13
2023-03-08T17:27:51.312Z,13.40
2023-03-08T17:38:29.032Z,16.13
2023-03-08T17:43:33.371Z,13.40
2023-03-08T17:48:41.838Z,9.30
2023-03-08T17:53:54.809Z,7.50
2023-03-08T17:59:03.699Z,7.97
2023-03-08T18:04:12.600Z,8.17
2023-03-08T18:09:52.465Z,10.97
2023-03-08T19:02:01.216Z,11.07
